sensor_id;sensor_type;location;lat;lon;timestamp;P1;durP1;ratioP1;P2;durP2;ratioP2
59978;SDS011;45839;44.882;20.650;2023-06-26T00:00:50;7.30;;;4.80;;
59978;SDS011;45839;44.882;20.650;2023-06-26T00:03:16;6.70;;;4.65;;
59978;SDS011;45839;44.882;20.650;2023-06-26T00:05:42;6.85;;;4.75;;
59978;SDS011;45839;44.882;20.650;2023-06-26T00:08:08;7.65;;;5.20;;
59978;SDS011;45839;44.882;20.650;2023-06-26T00:10:34;6.97;;;4.57;;
59978;SDS011;45839;44.882;20.650;2023-06-26T00:13:00;7.40;;;4.97;;
59978;SDS011;45839;44.882;20.650;2023-06-26T00:15:27;8.02;;;4.65;;
59978;SDS011;45839;44.882;20.650;2023-06-26T00:17:56;7.30;;;5.38;;
59978;SDS011;45839;44.882;20.650;2023-06-26T00:20:22;7.32;;;4.90;;
59978;SDS011;45839;44.882;20.650;2023-06-26T00:22:50;8.07;;;5.22;;
59978;SDS011;45839;44.882;20.650;2023-06-26T00:25:16;7.18;;;4.90;;
59978;SDS011;45839;44.882;20.650;2023-06-26T00:27:42;9.05;;;5.40;;
59978;SDS011;45839;44.882;20.650;2023-06-26T00:30:08;8.98;;;5.07;;
59978;SDS011;45839;44.882;20.650;2023-06-26T00:32:34;9.70;;;5.32;;
59978;SDS011;45839;44.882;20.650;2023-06-26T00:35:00;7.50;;;5.43;;
59978;SDS011;45839;44.882;20.650;2023-06-26T00:37:26;8.95;;;5.93;;
59978;SDS011;45839;44.882;20.650;2023-06-26T00:39:53;7.40;;;5.55;;
59978;SDS011;45839;44.882;20.650;2023-06-26T00:42:19;9.50;;;5.70;;
59978;SDS011;45839;44.882;20.650;2023-06-26T00:44:45;7.00;;;5.00;;
59978;SDS011;45839;44.882;20.650;2023-06-26T00:47:11;7.47;;;5.80;;
59978;SDS011;45839;44.882;20.650;2023-06-26T00:49:39;8.98;;;5.57;;
59978;SDS011;45839;44.882;20.650;2023-06-26T00:52:05;7.47;;;5.18;;
59978;SDS011;45839;44.882;20.650;2023-06-26T00:54:31;7.97;;;5.35;;
59978;SDS011;45839;44.882;20.650;2023-06-26T00:56:58;8.50;;;5.85;;
59978;SDS011;45839;44.882;20.650;2023-06-26T00:59:24;7.85;;;5.80;;
59978;SDS011;45839;44.882;20.650;2023-06-26T01:01:50;6.90;;;5.00;;
59978;SDS011;45839;44.882;20.650;2023-06-26T01:04:16;7.88;;;5.13;;
59978;SDS011;45839;44.882;20.650;2023-06-26T01:06:43;6.78;;;4.43;;
59978;SDS011;45839;44.882;20.650;2023-06-26T01:09:15;7.13;;;5.25;;
59978;SDS011;45839;44.882;20.650;2023-06-26T01:11:41;9.32;;;5.43;;
59978;SDS011;45839;44.882;20.650;2023-06-26T01:14:07;8.38;;;5.20;;
59978;SDS011;45839;44.882;20.650;2023-06-26T01:16:33;8.82;;;5.55;;
59978;SDS011;45839;44.882;20.650;2023-06-26T01:19:01;8.00;;;5.43;;
59978;SDS011;45839;44.882;20.650;2023-06-26T01:21:27;8.48;;;5.35;;
59978;SDS011;45839;44.882;20.650;2023-06-26T01:26:25;9.55;;;5.40;;
59978;SDS011;45839;44.882;20.650;2023-06-26T01:28:52;8.32;;;5.00;;
59978;SDS011;45839;44.882;20.650;2023-06-26T01:31:19;8.00;;;5.25;;
59978;SDS011;45839;44.882;20.650;2023-06-26T01:33:45;6.85;;;4.57;;
59978;SDS011;45839;44.882;20.650;2023-06-26T01:36:12;7.47;;;5.18;;
59978;SDS011;45839;44.882;20.650;2023-06-26T01:38:38;8.80;;;5.68;;
59978;SDS011;45839;44.882;20.650;2023-06-26T01:41:04;10.45;;;5.80;;
59978;SDS011;45839;44.882;20.650;2023-06-26T01:46:16;10.32;;;6.03;;
59978;SDS011;45839;44.882;20.650;2023-06-26T01:48:46;9.25;;;4.95;;
59978;SDS011;45839;44.882;20.650;2023-06-26T01:51:13;8.38;;;5.38;;
59978;SDS011;45839;44.882;20.650;2023-06-26T01:53:41;8.95;;;5.97;;
59978;SDS011;45839;44.882;20.650;2023-06-26T01:56:12;8.10;;;5.32;;
59978;SDS011;45839;44.882;20.650;2023-06-26T01:58:40;9.40;;;5.60;;
59978;SDS011;45839;44.882;20.650;2023-06-26T02:01:08;7.82;;;5.50;;
59978;SDS011;45839;44.882;20.650;2023-06-26T02:03:34;8.63;;;5.60;;
59978;SDS011;45839;44.882;20.650;2023-06-26T02:06:00;9.95;;;5.90;;
59978;SDS011;45839;44.882;20.650;2023-06-26T02:08:26;7.88;;;6.22;;
59978;SDS011;45839;44.882;20.650;2023-06-26T02:10:52;7.55;;;5.97;;
59978;SDS011;45839;44.882;20.650;2023-06-26T02:13:18;9.60;;;6.95;;
59978;SDS011;45839;44.882;20.650;2023-06-26T02:15:44;8.05;;;5.50;;
59978;SDS011;45839;44.882;20.650;2023-06-26T02:18:10;8.55;;;6.75;;
59978;SDS011;45839;44.882;20.650;2023-06-26T02:20:36;8.32;;;5.90;;
59978;SDS011;45839;44.882;20.650;2023-06-26T02:23:02;9.95;;;6.47;;
59978;SDS011;45839;44.882;20.650;2023-06-26T02:25:28;9.90;;;6.60;;
59978;SDS011;45839;44.882;20.650;2023-06-26T02:27:54;12.38;;;6.82;;
59978;SDS011;45839;44.882;20.650;2023-06-26T02:30:20;10.63;;;6.55;;
59978;SDS011;45839;44.882;20.650;2023-06-26T02:32:46;9.13;;;6.55;;
59978;SDS011;45839;44.882;20.650;2023-06-26T02:35:12;10.70;;;6.57;;
59978;SDS011;45839;44.882;20.650;2023-06-26T02:37:38;10.10;;;6.93;;
59978;SDS011;45839;44.882;20.650;2023-06-26T02:40:04;8.88;;;6.63;;
59978;SDS011;45839;44.882;20.650;2023-06-26T02:42:31;9.75;;;6.60;;
59978;SDS011;45839;44.882;20.650;2023-06-26T02:44:57;10.80;;;6.60;;
59978;SDS011;45839;44.882;20.650;2023-06-26T02:47:23;8.38;;;5.85;;
59978;SDS011;45839;44.882;20.650;2023-06-26T02:49:49;10.02;;;6.07;;
59978;SDS011;45839;44.882;20.650;2023-06-26T02:52:15;9.07;;;6.15;;
59978;SDS011;45839;44.882;20.650;2023-06-26T02:54:41;8.73;;;6.20;;
59978;SDS011;45839;44.882;20.650;2023-06-26T02:57:07;8.68;;;6.40;;
59978;SDS011;45839;44.882;20.650;2023-06-26T02:59:33;9.15;;;6.38;;
59978;SDS011;45839;44.882;20.650;2023-06-26T03:01:59;7.97;;;5.53;;
59978;SDS011;45839;44.882;20.650;2023-06-26T03:04:25;10.13;;;6.30;;
59978;SDS011;45839;44.882;20.650;2023-06-26T03:06:52;8.38;;;6.53;;
59978;SDS011;45839;44.882;20.650;2023-06-26T03:09:18;13.57;;;5.72;;
59978;SDS011;45839;44.882;20.650;2023-06-26T03:11:44;8.10;;;5.97;;
59978;SDS011;45839;44.882;20.650;2023-06-26T03:14:10;8.98;;;5.30;;
59978;SDS011;45839;44.882;20.650;2023-06-26T03:16:36;8.05;;;6.13;;
59978;SDS011;45839;44.882;20.650;2023-06-26T03:19:02;9.98;;;5.70;;
59978;SDS011;45839;44.882;20.650;2023-06-26T03:21:29;7.60;;;5.47;;
59978;SDS011;45839;44.882;20.650;2023-06-26T03:23:55;8.38;;;4.88;;
59978;SDS011;45839;44.882;20.650;2023-06-26T03:26:21;8.95;;;5.72;;
59978;SDS011;45839;44.882;20.650;2023-06-26T03:28:53;7.82;;;5.38;;
59978;SDS011;45839;44.882;20.650;2023-06-26T03:31:20;7.35;;;5.32;;
59978;SDS011;45839;44.882;20.650;2023-06-26T03:33:46;7.85;;;5.57;;
59978;SDS011;45839;44.882;20.650;2023-06-26T03:36:12;7.70;;;5.68;;
59978;SDS011;45839;44.882;20.650;2023-06-26T03:38:38;7.57;;;5.40;;
59978;SDS011;45839;44.882;20.650;2023-06-26T03:41:04;8.02;;;5.90;;
59978;SDS011;45839;44.882;20.650;2023-06-26T03:43:30;8.48;;;5.85;;
59978;SDS011;45839;44.882;20.650;2023-06-26T03:45:56;7.57;;;5.53;;
59978;SDS011;45839;44.882;20.650;2023-06-26T03:48:22;7.30;;;5.63;;
59978;SDS011;45839;44.882;20.650;2023-06-26T03:50:48;9.13;;;5.95;;
59978;SDS011;45839;44.882;20.650;2023-06-26T03:53:14;9.02;;;6.20;;
59978;SDS011;45839;44.882;20.650;2023-06-26T03:55:40;9.57;;;5.70;;
59978;SDS011;45839;44.882;20.650;2023-06-26T03:58:06;8.68;;;5.63;;
59978;SDS011;45839;44.882;20.650;2023-06-26T04:00:32;11.55;;;5.88;;
59978;SDS011;45839;44.882;20.650;2023-06-26T04:02:58;8.45;;;5.97;;
59978;SDS011;45839;44.882;20.650;2023-06-26T04:05:24;8.30;;;5.40;;
59978;SDS011;45839;44.882;20.650;2023-06-26T04:07:51;11.40;;;6.20;;
59978;SDS011;45839;44.882;20.650;2023-06-26T04:10:17;8.23;;;5.20;;
59978;SDS011;45839;44.882;20.650;2023-06-26T04:12:43;8.50;;;6.50;;
59978;SDS011;45839;44.882;20.650;2023-06-26T04:15:09;10.25;;;6.97;;
59978;SDS011;45839;44.882;20.650;2023-06-26T04:17:35;25.27;;;19.67;;
59978;SDS011;45839;44.882;20.650;2023-06-26T04:20:01;12.45;;;9.38;;
59978;SDS011;45839;44.882;20.650;2023-06-26T04:22:31;12.27;;;8.43;;
59978;SDS011;45839;44.882;20.650;2023-06-26T04:24:57;8.45;;;6.57;;
59978;SDS011;45839;44.882;20.650;2023-06-26T04:27:23;10.43;;;7.43;;
59978;SDS011;45839;44.882;20.650;2023-06-26T04:29:49;21.63;;;15.38;;
59978;SDS011;45839;44.882;20.650;2023-06-26T04:32:15;10.88;;;7.97;;
59978;SDS011;45839;44.882;20.650;2023-06-26T04:34:41;12.13;;;7.50;;
59978;SDS011;45839;44.882;20.650;2023-06-26T04:37:10;10.65;;;7.60;;
59978;SDS011;45839;44.882;20.650;2023-06-26T04:39:37;9.43;;;7.18;;
59978;SDS011;45839;44.882;20.650;2023-06-26T04:42:04;10.25;;;7.45;;
59978;SDS011;45839;44.882;20.650;2023-06-26T04:44:30;13.60;;;9.93;;
59978;SDS011;45839;44.882;20.650;2023-06-26T04:46:56;12.38;;;9.80;;
59978;SDS011;45839;44.882;20.650;2023-06-26T04:49:22;13.07;;;9.90;;
59978;SDS011;45839;44.882;20.650;2023-06-26T04:51:49;9.45;;;7.60;;
59978;SDS011;45839;44.882;20.650;2023-06-26T04:54:15;9.43;;;7.40;;
59978;SDS011;45839;44.882;20.650;2023-06-26T04:56:42;10.88;;;7.50;;
59978;SDS011;45839;44.882;20.650;2023-06-26T04:59:08;9.07;;;7.03;;
59978;SDS011;45839;44.882;20.650;2023-06-26T05:01:38;11.73;;;7.43;;
59978;SDS011;45839;44.882;20.650;2023-06-26T05:04:04;11.82;;;7.22;;
59978;SDS011;45839;44.882;20.650;2023-06-26T05:06:30;10.27;;;6.72;;
59978;SDS011;45839;44.882;20.650;2023-06-26T05:08:56;10.00;;;7.57;;
59978;SDS011;45839;44.882;20.650;2023-06-26T05:11:23;9.43;;;7.05;;
59978;SDS011;45839;44.882;20.650;2023-06-26T05:13:50;9.95;;;6.95;;
59978;SDS011;45839;44.882;20.650;2023-06-26T05:16:16;9.85;;;7.07;;
59978;SDS011;45839;44.882;20.650;2023-06-26T05:18:42;10.90;;;6.88;;
59978;SDS011;45839;44.882;20.650;2023-06-26T05:21:08;12.77;;;7.65;;
59978;SDS011;45839;44.882;20.650;2023-06-26T05:23:34;12.27;;;8.23;;
59978;SDS011;45839;44.882;20.650;2023-06-26T05:26:01;9.90;;;7.60;;
59978;SDS011;45839;44.882;20.650;2023-06-26T05:28:28;10.32;;;7.65;;
59978;SDS011;45839;44.882;20.650;2023-06-26T05:30:56;9.95;;;7.80;;
59978;SDS011;45839;44.882;20.650;2023-06-26T05:33:23;10.60;;;7.43;;
59978;SDS011;45839;44.882;20.650;2023-06-26T05:35:51;9.80;;;7.22;;
59978;SDS011;45839;44.882;20.650;2023-06-26T05:38:17;11.50;;;6.90;;
59978;SDS011;45839;44.882;20.650;2023-06-26T05:40:44;10.82;;;7.18;;
59978;SDS011;45839;44.882;20.650;2023-06-26T05:43:10;10.65;;;7.00;;
59978;SDS011;45839;44.882;20.650;2023-06-26T05:45:36;11.20;;;7.70;;
59978;SDS011;45839;44.882;20.650;2023-06-26T05:48:02;10.85;;;7.78;;
59978;SDS011;45839;44.882;20.650;2023-06-26T05:50:28;9.27;;;7.07;;
59978;SDS011;45839;44.882;20.650;2023-06-26T05:52:54;11.10;;;6.75;;
59978;SDS011;45839;44.882;20.650;2023-06-26T05:55:21;9.10;;;6.50;;
59978;SDS011;45839;44.882;20.650;2023-06-26T05:57:47;8.68;;;6.93;;
59978;SDS011;45839;44.882;20.650;2023-06-26T06:00:13;8.95;;;7.00;;
59978;SDS011;45839;44.882;20.650;2023-06-26T06:02:39;9.95;;;7.32;;
59978;SDS011;45839;44.882;20.650;2023-06-26T06:05:07;11.60;;;6.95;;
59978;SDS011;45839;44.882;20.650;2023-06-26T06:07:33;10.40;;;7.03;;
59978;SDS011;45839;44.882;20.650;2023-06-26T06:09:59;10.77;;;7.57;;
59978;SDS011;45839;44.882;20.650;2023-06-26T06:12:25;8.05;;;6.22;;
59978;SDS011;45839;44.882;20.650;2023-06-26T06:14:52;10.88;;;6.80;;
59978;SDS011;45839;44.882;20.650;2023-06-26T06:17:21;9.30;;;6.35;;
59978;SDS011;45839;44.882;20.650;2023-06-26T06:19:47;10.48;;;6.68;;
59978;SDS011;45839;44.882;20.650;2023-06-26T06:22:13;10.90;;;7.03;;
59978;SDS011;45839;44.882;20.650;2023-06-26T06:24:39;10.82;;;6.35;;
59978;SDS011;45839;44.882;20.650;2023-06-26T06:27:05;11.85;;;8.98;;
59978;SDS011;45839;44.882;20.650;2023-06-26T06:29:31;8.63;;;6.95;;
59978;SDS011;45839;44.882;20.650;2023-06-26T06:31:57;9.48;;;6.72;;
59978;SDS011;45839;44.882;20.650;2023-06-26T06:34:23;9.13;;;6.90;;
59978;SDS011;45839;44.882;20.650;2023-06-26T06:36:49;11.30;;;6.43;;
59978;SDS011;45839;44.882;20.650;2023-06-26T06:39:16;11.02;;;7.00;;
59978;SDS011;45839;44.882;20.650;2023-06-26T06:41:42;10.45;;;6.32;;
59978;SDS011;45839;44.882;20.650;2023-06-26T06:44:08;14.07;;;5.75;;
59978;SDS011;45839;44.882;20.650;2023-06-26T06:46:34;11.20;;;5.75;;
59978;SDS011;45839;44.882;20.650;2023-06-26T06:49:00;9.45;;;6.13;;
59978;SDS011;45839;44.882;20.650;2023-06-26T06:51:26;8.70;;;5.85;;
59978;SDS011;45839;44.882;20.650;2023-06-26T06:53:52;9.70;;;6.38;;
59978;SDS011;45839;44.882;20.650;2023-06-26T06:56:18;8.10;;;6.50;;
59978;SDS011;45839;44.882;20.650;2023-06-26T06:58:44;10.43;;;6.57;;
59978;SDS011;45839;44.882;20.650;2023-06-26T07:01:14;10.45;;;6.85;;
59978;SDS011;45839;44.882;20.650;2023-06-26T07:03:40;10.38;;;6.55;;
59978;SDS011;45839;44.882;20.650;2023-06-26T07:06:07;7.95;;;6.47;;
59978;SDS011;45839;44.882;20.650;2023-06-26T07:08:33;9.45;;;6.70;;
59978;SDS011;45839;44.882;20.650;2023-06-26T07:10:59;9.02;;;6.55;;
59978;SDS011;45839;44.882;20.650;2023-06-26T07:13:25;10.68;;;6.65;;
59978;SDS011;45839;44.882;20.650;2023-06-26T07:15:51;8.82;;;6.43;;
59978;SDS011;45839;44.882;20.650;2023-06-26T07:18:17;10.23;;;7.55;;
59978;SDS011;45839;44.882;20.650;2023-06-26T07:20:43;11.43;;;7.20;;
59978;SDS011;45839;44.882;20.650;2023-06-26T07:23:09;8.52;;;7.07;;
59978;SDS011;45839;44.882;20.650;2023-06-26T07:25:36;9.30;;;6.63;;
59978;SDS011;45839;44.882;20.650;2023-06-26T07:28:02;10.18;;;6.13;;
59978;SDS011;45839;44.882;20.650;2023-06-26T07:30:28;11.80;;;7.70;;
59978;SDS011;45839;44.882;20.650;2023-06-26T07:32:54;11.55;;;8.95;;
59978;SDS011;45839;44.882;20.650;2023-06-26T07:35:20;17.33;;;12.75;;
59978;SDS011;45839;44.882;20.650;2023-06-26T07:37:46;19.08;;;16.05;;
59978;SDS011;45839;44.882;20.650;2023-06-26T07:40:12;10.18;;;7.68;;
59978;SDS011;45839;44.882;20.650;2023-06-26T07:42:38;11.70;;;6.18;;
59978;SDS011;45839;44.882;20.650;2023-06-26T07:45:05;7.68;;;5.22;;
59978;SDS011;45839;44.882;20.650;2023-06-26T07:47:36;10.20;;;8.18;;
59978;SDS011;45839;44.882;20.650;2023-06-26T07:50:02;7.20;;;5.00;;
59978;SDS011;45839;44.882;20.650;2023-06-26T07:52:29;8.02;;;4.85;;
59978;SDS011;45839;44.882;20.650;2023-06-26T07:54:55;8.45;;;5.88;;
59978;SDS011;45839;44.882;20.650;2023-06-26T07:57:21;10.40;;;5.75;;
59978;SDS011;45839;44.882;20.650;2023-06-26T07:59:47;8.50;;;5.47;;
59978;SDS011;45839;44.882;20.650;2023-06-26T08:02:13;6.90;;;4.90;;
59978;SDS011;45839;44.882;20.650;2023-06-26T08:04:39;8.88;;;5.65;;
59978;SDS011;45839;44.882;20.650;2023-06-26T08:07:05;7.60;;;5.38;;
59978;SDS011;45839;44.882;20.650;2023-06-26T08:09:32;7.78;;;4.70;;
59978;SDS011;45839;44.882;20.650;2023-06-26T08:11:58;6.88;;;4.15;;
59978;SDS011;45839;44.882;20.650;2023-06-26T08:14:25;8.18;;;3.75;;
59978;SDS011;45839;44.882;20.650;2023-06-26T08:16:51;6.10;;;3.83;;
59978;SDS011;45839;44.882;20.650;2023-06-26T08:19:17;5.90;;;3.35;;
59978;SDS011;45839;44.882;20.650;2023-06-26T08:21:43;7.07;;;4.00;;
59978;SDS011;45839;44.882;20.650;2023-06-26T08:24:10;8.02;;;4.13;;
59978;SDS011;45839;44.882;20.650;2023-06-26T08:26:38;6.55;;;3.75;;
59978;SDS011;45839;44.882;20.650;2023-06-26T08:29:04;6.82;;;3.42;;
59978;SDS011;45839;44.882;20.650;2023-06-26T08:31:35;6.82;;;3.90;;
59978;SDS011;45839;44.882;20.650;2023-06-26T08:34:02;6.93;;;4.05;;
59978;SDS011;45839;44.882;20.650;2023-06-26T08:36:28;6.13;;;3.60;;
59978;SDS011;45839;44.882;20.650;2023-06-26T08:38:54;8.63;;;4.10;;
59978;SDS011;45839;44.882;20.650;2023-06-26T08:41:20;6.38;;;3.72;;
59978;SDS011;45839;44.882;20.650;2023-06-26T08:43:46;5.68;;;3.55;;
59978;SDS011;45839;44.882;20.650;2023-06-26T08:46:13;6.32;;;3.97;;
59978;SDS011;45839;44.882;20.650;2023-06-26T08:48:40;6.53;;;3.30;;
59978;SDS011;45839;44.882;20.650;2023-06-26T08:51:09;6.43;;;3.80;;
59978;SDS011;45839;44.882;20.650;2023-06-26T08:53:52;6.20;;;3.50;;
59978;SDS011;45839;44.882;20.650;2023-06-26T08:56:18;6.43;;;3.27;;
59978;SDS011;45839;44.882;20.650;2023-06-26T08:58:47;5.80;;;3.20;;
59978;SDS011;45839;44.882;20.650;2023-06-26T09:01:13;5.07;;;3.08;;
59978;SDS011;45839;44.882;20.650;2023-06-26T09:03:39;7.38;;;3.30;;
59978;SDS011;45839;44.882;20.650;2023-06-26T09:06:06;6.85;;;3.08;;
59978;SDS011;45839;44.882;20.650;2023-06-26T09:08:32;4.88;;;3.00;;
59978;SDS011;45839;44.882;20.650;2023-06-26T09:10:58;8.60;;;3.40;;
59978;SDS011;45839;44.882;20.650;2023-06-26T09:13:24;5.90;;;3.22;;
59978;SDS011;45839;44.882;20.650;2023-06-26T09:15:52;5.80;;;3.30;;
59978;SDS011;45839;44.882;20.650;2023-06-26T09:18:20;5.55;;;3.45;;
59978;SDS011;45839;44.882;20.650;2023-06-26T09:20:47;5.97;;;3.00;;
59978;SDS011;45839;44.882;20.650;2023-06-26T09:23:13;6.65;;;4.20;;
59978;SDS011;45839;44.882;20.650;2023-06-26T09:25:39;7.10;;;4.03;;
59978;SDS011;45839;44.882;20.650;2023-06-26T09:28:06;6.50;;;2.92;;
59978;SDS011;45839;44.882;20.650;2023-06-26T09:30:32;5.40;;;2.70;;
59978;SDS011;45839;44.882;20.650;2023-06-26T09:33:12;6.22;;;3.60;;
59978;SDS011;45839;44.882;20.650;2023-06-26T09:35:39;6.13;;;3.33;;
59978;SDS011;45839;44.882;20.650;2023-06-26T09:38:07;5.40;;;3.05;;
59978;SDS011;45839;44.882;20.650;2023-06-26T09:40:33;6.95;;;3.17;;
59978;SDS011;45839;44.882;20.650;2023-06-26T09:43:10;5.88;;;3.38;;
59978;SDS011;45839;44.882;20.650;2023-06-26T09:45:39;5.18;;;2.90;;
59978;SDS011;45839;44.882;20.650;2023-06-26T09:48:05;6.65;;;3.20;;
59978;SDS011;45839;44.882;20.650;2023-06-26T09:50:34;5.22;;;2.72;;
59978;SDS011;45839;44.882;20.650;2023-06-26T09:53:08;6.68;;;3.20;;
59978;SDS011;45839;44.882;20.650;2023-06-26T09:55:38;6.38;;;3.60;;
59978;SDS011;45839;44.882;20.650;2023-06-26T09:58:05;5.38;;;2.95;;
59978;SDS011;45839;44.882;20.650;2023-06-26T10:00:32;7.70;;;3.03;;
59978;SDS011;45839;44.882;20.650;2023-06-26T10:03:01;4.82;;;2.70;;
59978;SDS011;45839;44.882;20.650;2023-06-26T10:05:27;5.85;;;3.40;;
59978;SDS011;45839;44.882;20.650;2023-06-26T10:07:56;9.50;;;4.15;;
59978;SDS011;45839;44.882;20.650;2023-06-26T10:10:23;7.55;;;3.58;;
59978;SDS011;45839;44.882;20.650;2023-06-26T10:12:51;7.25;;;3.70;;
59978;SDS011;45839;44.882;20.650;2023-06-26T10:15:17;6.05;;;3.50;;
59978;SDS011;45839;44.882;20.650;2023-06-26T10:17:43;6.97;;;3.38;;
59978;SDS011;45839;44.882;20.650;2023-06-26T10:20:10;6.93;;;4.03;;
59978;SDS011;45839;44.882;20.650;2023-06-26T10:22:40;6.20;;;3.60;;
59978;SDS011;45839;44.882;20.650;2023-06-26T10:25:07;6.97;;;3.50;;
59978;SDS011;45839;44.882;20.650;2023-06-26T10:27:36;6.25;;;3.58;;
59978;SDS011;45839;44.882;20.650;2023-06-26T10:30:04;7.28;;;3.92;;
59978;SDS011;45839;44.882;20.650;2023-06-26T10:32:32;5.95;;;4.13;;
59978;SDS011;45839;44.882;20.650;2023-06-26T10:34:58;8.57;;;3.80;;
59978;SDS011;45839;44.882;20.650;2023-06-26T10:37:40;6.10;;;3.20;;
59978;SDS011;45839;44.882;20.650;2023-06-26T10:40:08;7.22;;;3.60;;
59978;SDS011;45839;44.882;20.650;2023-06-26T10:42:34;7.10;;;3.50;;
59978;SDS011;45839;44.882;20.650;2023-06-26T10:47:37;5.88;;;3.55;;
59978;SDS011;45839;44.882;20.650;2023-06-26T10:53:13;5.55;;;3.38;;
59978;SDS011;45839;44.882;20.650;2023-06-26T10:55:43;9.45;;;3.83;;
59978;SDS011;45839;44.882;20.650;2023-06-26T11:01:17;6.55;;;3.25;;
59978;SDS011;45839;44.882;20.650;2023-06-26T11:03:41;7.45;;;3.95;;
59978;SDS011;45839;44.882;20.650;2023-06-26T11:06:20;5.82;;;3.80;;
59978;SDS011;45839;44.882;20.650;2023-06-26T11:08:50;5.55;;;3.67;;
59978;SDS011;45839;44.882;20.650;2023-06-26T11:11:19;6.32;;;4.55;;
59978;SDS011;45839;44.882;20.650;2023-06-26T11:13:46;5.85;;;3.20;;
59978;SDS011;45839;44.882;20.650;2023-06-26T11:16:12;6.35;;;3.67;;
59978;SDS011;45839;44.882;20.650;2023-06-26T11:18:39;6.95;;;3.70;;
59978;SDS011;45839;44.882;20.650;2023-06-26T11:21:09;5.38;;;3.33;;
59978;SDS011;45839;44.882;20.650;2023-06-26T11:23:36;5.50;;;3.25;;
59978;SDS011;45839;44.882;20.650;2023-06-26T11:26:24;7.20;;;4.20;;
59978;SDS011;45839;44.882;20.650;2023-06-26T11:28:54;5.45;;;3.10;;
59978;SDS011;45839;44.882;20.650;2023-06-26T11:31:30;5.57;;;3.70;;
59978;SDS011;45839;44.882;20.650;2023-06-26T11:33:59;5.95;;;3.70;;
59978;SDS011;45839;44.882;20.650;2023-06-26T11:36:26;5.72;;;3.90;;
59978;SDS011;45839;44.882;20.650;2023-06-26T11:38:52;7.57;;;3.75;;
59978;SDS011;45839;44.882;20.650;2023-06-26T11:41:19;8.10;;;5.00;;
59978;SDS011;45839;44.882;20.650;2023-06-26T11:43:46;10.73;;;5.13;;
59978;SDS011;45839;44.882;20.650;2023-06-26T11:46:12;10.05;;;6.70;;
59978;SDS011;45839;44.882;20.650;2023-06-26T11:48:50;13.75;;;10.75;;
59978;SDS011;45839;44.882;20.650;2023-06-26T11:51:17;9.82;;;7.00;;
59978;SDS011;45839;44.882;20.650;2023-06-26T11:53:43;12.40;;;10.48;;
59978;SDS011;45839;44.882;20.650;2023-06-26T11:56:13;8.88;;;7.00;;
59978;SDS011;45839;44.882;20.650;2023-06-26T12:01:35;7.90;;;5.35;;
59978;SDS011;45839;44.882;20.650;2023-06-26T12:04:05;9.30;;;6.43;;
59978;SDS011;45839;44.882;20.650;2023-06-26T12:06:35;12.23;;;7.07;;
59978;SDS011;45839;44.882;20.650;2023-06-26T12:09:02;10.63;;;9.25;;
59978;SDS011;45839;44.882;20.650;2023-06-26T12:11:30;8.85;;;6.20;;
59978;SDS011;45839;44.882;20.650;2023-06-26T12:13:56;7.70;;;5.43;;
59978;SDS011;45839;44.882;20.650;2023-06-26T12:16:23;6.60;;;4.75;;
59978;SDS011;45839;44.882;20.650;2023-06-26T12:18:50;10.75;;;6.95;;
59978;SDS011;45839;44.882;20.650;2023-06-26T12:23:58;6.90;;;5.07;;
59978;SDS011;45839;44.882;20.650;2023-06-26T12:26:25;8.60;;;5.75;;
59978;SDS011;45839;44.882;20.650;2023-06-26T12:28:51;7.20;;;5.03;;
59978;SDS011;45839;44.882;20.650;2023-06-26T12:31:19;7.70;;;5.93;;
59978;SDS011;45839;44.882;20.650;2023-06-26T12:33:46;9.40;;;7.13;;
59978;SDS011;45839;44.882;20.650;2023-06-26T12:36:12;9.45;;;6.22;;
59978;SDS011;45839;44.882;20.650;2023-06-26T12:38:39;7.40;;;4.43;;
59978;SDS011;45839;44.882;20.650;2023-06-26T12:41:11;8.20;;;5.60;;
59978;SDS011;45839;44.882;20.650;2023-06-26T12:43:38;8.00;;;5.53;;
59978;SDS011;45839;44.882;20.650;2023-06-26T12:46:05;7.10;;;5.00;;
59978;SDS011;45839;44.882;20.650;2023-06-26T12:48:41;7.70;;;5.78;;
59978;SDS011;45839;44.882;20.650;2023-06-26T12:51:14;8.57;;;4.95;;
59978;SDS011;45839;44.882;20.650;2023-06-26T12:53:40;6.60;;;4.50;;
59978;SDS011;45839;44.882;20.650;2023-06-26T12:56:07;6.90;;;4.47;;
59978;SDS011;45839;44.882;20.650;2023-06-26T12:58:36;5.82;;;4.15;;
59978;SDS011;45839;44.882;20.650;2023-06-26T13:01:03;6.93;;;5.03;;
59978;SDS011;45839;44.882;20.650;2023-06-26T13:03:29;7.47;;;4.70;;
59978;SDS011;45839;44.882;20.650;2023-06-26T13:05:55;6.78;;;4.50;;
59978;SDS011;45839;44.882;20.650;2023-06-26T13:08:21;4.55;;;3.03;;
59978;SDS011;45839;44.882;20.650;2023-06-26T13:10:48;6.15;;;3.00;;
59978;SDS011;45839;44.882;20.650;2023-06-26T13:13:14;6.93;;;5.10;;
59978;SDS011;45839;44.882;20.650;2023-06-26T13:15:40;6.22;;;4.00;;
59978;SDS011;45839;44.882;20.650;2023-06-26T13:18:06;6.07;;;4.35;;
59978;SDS011;45839;44.882;20.650;2023-06-26T13:20:32;6.75;;;4.40;;
59978;SDS011;45839;44.882;20.650;2023-06-26T13:22:58;6.72;;;4.85;;
59978;SDS011;45839;44.882;20.650;2023-06-26T13:25:24;7.10;;;5.07;;
59978;SDS011;45839;44.882;20.650;2023-06-26T13:27:50;6.28;;;3.38;;
59978;SDS011;45839;44.882;20.650;2023-06-26T13:30:16;6.10;;;3.60;;
59978;SDS011;45839;44.882;20.650;2023-06-26T13:32:42;5.95;;;3.65;;
59978;SDS011;45839;44.882;20.650;2023-06-26T13:35:08;5.35;;;3.28;;
59978;SDS011;45839;44.882;20.650;2023-06-26T13:37:35;4.95;;;2.83;;
59978;SDS011;45839;44.882;20.650;2023-06-26T13:40:02;6.28;;;3.40;;
59978;SDS011;45839;44.882;20.650;2023-06-26T13:42:28;5.72;;;3.00;;
59978;SDS011;45839;44.882;20.650;2023-06-26T13:44:54;4.60;;;2.70;;
59978;SDS011;45839;44.882;20.650;2023-06-26T13:47:21;5.18;;;3.13;;
59978;SDS011;45839;44.882;20.650;2023-06-26T13:49:47;5.03;;;3.08;;
59978;SDS011;45839;44.882;20.650;2023-06-26T13:52:13;8.25;;;3.92;;
59978;SDS011;45839;44.882;20.650;2023-06-26T13:54:39;7.10;;;3.13;;
59978;SDS011;45839;44.882;20.650;2023-06-26T13:57:06;5.82;;;2.55;;
59978;SDS011;45839;44.882;20.650;2023-06-26T13:59:33;5.22;;;2.90;;
59978;SDS011;45839;44.882;20.650;2023-06-26T14:01:59;4.85;;;2.92;;
59978;SDS011;45839;44.882;20.650;2023-06-26T14:04:25;7.63;;;4.80;;
59978;SDS011;45839;44.882;20.650;2023-06-26T14:06:52;5.45;;;3.10;;
59978;SDS011;45839;44.882;20.650;2023-06-26T14:09:18;6.72;;;3.10;;
59978;SDS011;45839;44.882;20.650;2023-06-26T14:11:44;5.30;;;2.65;;
59978;SDS011;45839;44.882;20.650;2023-06-26T14:14:10;4.75;;;2.60;;
59978;SDS011;45839;44.882;20.650;2023-06-26T14:16:36;5.72;;;2.75;;
59978;SDS011;45839;44.882;20.650;2023-06-26T14:19:05;4.88;;;2.30;;
59978;SDS011;45839;44.882;20.650;2023-06-26T14:21:31;5.18;;;2.50;;
59978;SDS011;45839;44.882;20.650;2023-06-26T14:23:58;4.90;;;2.40;;
59978;SDS011;45839;44.882;20.650;2023-06-26T14:26:24;4.80;;;2.65;;
59978;SDS011;45839;44.882;20.650;2023-06-26T14:28:50;5.07;;;2.55;;
59978;SDS011;45839;44.882;20.650;2023-06-26T14:31:16;5.18;;;2.67;;
59978;SDS011;45839;44.882;20.650;2023-06-26T14:33:42;6.53;;;2.63;;
59978;SDS011;45839;44.882;20.650;2023-06-26T14:36:08;4.68;;;2.50;;
59978;SDS011;45839;44.882;20.650;2023-06-26T14:38:34;6.00;;;2.50;;
59978;SDS011;45839;44.882;20.650;2023-06-26T14:41:00;5.13;;;2.53;;
59978;SDS011;45839;44.882;20.650;2023-06-26T14:43:26;4.75;;;2.97;;
59978;SDS011;45839;44.882;20.650;2023-06-26T14:45:52;4.78;;;2.80;;
59978;SDS011;45839;44.882;20.650;2023-06-26T14:48:18;5.47;;;2.60;;